sensor_id;sensor_type;location;lat;lon;timestamp;pressure;altitude;pressure_sealevel;temperature;humidity
57232;BME280;43488;46.934;8.276;2023-04-19T00:01:22;96726.03;;;12.16;77.68
57232;BME280;43488;46.934;8.276;2023-04-19T00:03:50;96724.03;;;12.11;77.99
57232;BME280;43488;46.934;8.276;2023-04-19T00:06:18;96726.13;;;12.03;78.54
57232;BME280;43488;46.934;8.276;2023-04-19T00:08:47;96725.75;;;11.99;77.70
57232;BME280;43488;46.934;8.276;2023-04-19T00:11:14;96726.13;;;12.03;78.23
57232;BME280;43488;46.934;8.276;2023-04-19T00:13:41;96724.50;;;12.02;77.96
57232;BME280;43488;46.934;8.276;2023-04-19T00:16:10;96729.41;;;11.98;77.65
57232;BME280;43488;46.934;8.276;2023-04-19T00:18:37;96717.19;;;11.97;77.91
57232;BME280;43488;46.934;8.276;2023-04-19T00:21:05;96727.00;;;11.90;77.90
57232;BME280;43488;46.934;8.276;2023-04-19T00:23:38;96719.50;;;11.87;78.12
57232;BME280;43488;46.934;8.276;2023-04-19T00:26:18;96730.84;;;11.87;78.05
57232;BME280;43488;46.934;8.276;2023-04-19T00:28:45;96726.38;;;11.88;78.18
57232;BME280;43488;46.934;8.276;2023-04-19T00:31:12;96725.38;;;11.89;78.41
57232;BME280;43488;46.934;8.276;2023-04-19T00:33:40;96729.22;;;11.86;78.32
57232;BME280;43488;46.934;8.276;2023-04-19T00:36:08;96722.56;;;11.84;78.92
57232;BME280;43488;46.934;8.276;2023-04-19T00:38:36;96724.97;;;11.85;78.78
57232;BME280;43488;46.934;8.276;2023-04-19T00:41:10;96729.81;;;11.95;78.56
57232;BME280;43488;46.934;8.276;2023-04-19T00:43:38;96735.88;;;11.95;78.79
57232;BME280;43488;46.934;8.276;2023-04-19T00:46:05;96720.47;;;11.99;78.66
57232;BME280;43488;46.934;8.276;2023-04-19T00:48:34;96721.28;;;12.00;78.35
57232;BME280;43488;46.934;8.276;2023-04-19T00:51:05;96713.81;;;11.90;77.98
57232;BME280;43488;46.934;8.276;2023-04-19T00:53:36;96713.03;;;11.83;78.92
57232;BME280;43488;46.934;8.276;2023-04-19T00:56:04;96715.22;;;11.79;78.84
57232;BME280;43488;46.934;8.276;2023-04-19T00:58:39;96714.00;;;11.88;78.80
57232;BME280;43488;46.934;8.276;2023-04-19T01:01:06;96706.28;;;11.87;78.56
57232;BME280;43488;46.934;8.276;2023-04-19T01:03:35;96716.81;;;11.93;78.58
57232;BME280;43488;46.934;8.276;2023-04-19T01:06:03;96719.31;;;11.82;78.49
57232;BME280;43488;46.934;8.276;2023-04-19T01:08:41;96710.00;;;11.73;78.40
57232;BME280;43488;46.934;8.276;2023-04-19T01:11:12;96708.78;;;11.68;79.18
57232;BME280;43488;46.934;8.276;2023-04-19T01:13:40;96711.84;;;11.72;79.19
57232;BME280;43488;46.934;8.276;2023-04-19T01:16:10;96717.72;;;11.67;79.24
57232;BME280;43488;46.934;8.276;2023-04-19T01:18:39;96712.63;;;11.73;79.08
57232;BME280;43488;46.934;8.276;2023-04-19T01:21:07;96713.44;;;11.73;78.77
57232;BME280;43488;46.934;8.276;2023-04-19T01:23:35;96714.47;;;11.72;78.82
57232;BME280;43488;46.934;8.276;2023-04-19T01:26:23;96704.94;;;11.71;78.67
57232;BME280;43488;46.934;8.276;2023-04-19T01:28:51;96706.34;;;11.67;79.46
57232;BME280;43488;46.934;8.276;2023-04-19T01:33:52;96701.09;;;11.60;79.16
57232;BME280;43488;46.934;8.276;2023-04-19T01:36:20;96695.03;;;11.60;79.41
57232;BME280;43488;46.934;8.276;2023-04-19T01:38:49;96699.91;;;11.63;79.88
57232;BME280;43488;46.934;8.276;2023-04-19T01:41:27;96696.47;;;11.56;79.98
57232;BME280;43488;46.934;8.276;2023-04-19T01:43:55;96704.38;;;11.56;80.49
57232;BME280;43488;46.934;8.276;2023-04-19T01:46:23;96693.81;;;11.62;80.03
57232;BME280;43488;46.934;8.276;2023-04-19T01:48:56;96691.97;;;11.63;79.32
57232;BME280;43488;46.934;8.276;2023-04-19T01:51:37;96690.25;;;11.37;80.19
57232;BME280;43488;46.934;8.276;2023-04-19T01:54:17;96690.22;;;11.44;80.15
57232;BME280;43488;46.934;8.276;2023-04-19T01:56:44;96683.75;;;11.39;80.40
57232;BME280;43488;46.934;8.276;2023-04-19T01:59:30;96686.38;;;11.46;80.19
57232;BME280;43488;46.934;8.276;2023-04-19T02:01:58;96684.31;;;11.55;80.49
57232;BME280;43488;46.934;8.276;2023-04-19T02:04:29;96682.69;;;11.54;80.45
57232;BME280;43488;46.934;8.276;2023-04-19T02:06:57;96683.09;;;11.51;80.40
57232;BME280;43488;46.934;8.276;2023-04-19T02:09:24;96681.06;;;11.53;79.91
57232;BME280;43488;46.934;8.276;2023-04-19T02:11:52;96679.63;;;11.57;79.83
57232;BME280;43488;46.934;8.276;2023-04-19T02:14:19;96686.75;;;11.50;79.36
57232;BME280;43488;46.934;8.276;2023-04-19T02:16:53;96685.31;;;11.54;78.97
57232;BME280;43488;46.934;8.276;2023-04-19T02:19:21;96682.56;;;11.35;80.44
57232;BME280;43488;46.934;8.276;2023-04-19T02:21:48;96680.88;;;11.41;80.03
57232;BME280;43488;46.934;8.276;2023-04-19T02:24:24;96679.47;;;11.45;80.37
57232;BME280;43488;46.934;8.276;2023-04-19T02:26:52;96677.22;;;11.49;80.21
57232;BME280;43488;46.934;8.276;2023-04-19T02:29:19;96679.25;;;11.53;80.58
57232;BME280;43488;46.934;8.276;2023-04-19T02:32:11;96682.06;;;11.52;80.81
57232;BME280;43488;46.934;8.276;2023-04-19T02:34:39;96682.91;;;11.52;80.61
57232;BME280;43488;46.934;8.276;2023-04-19T02:37:06;96683.09;;;11.51;80.50
57232;BME280;43488;46.934;8.276;2023-04-19T02:42:09;96677.88;;;11.44;80.08
57232;BME280;43488;46.934;8.276;2023-04-19T02:44:36;96677.44;;;11.47;80.55
57232;BME280;43488;46.934;8.276;2023-04-19T02:47:20;96678.25;;;11.48;80.18
57232;BME280;43488;46.934;8.276;2023-04-19T02:50:15;96680.28;;;11.46;81.03
57232;BME280;43488;46.934;8.276;2023-04-19T02:52:43;96676.44;;;11.42;81.00
57232;BME280;43488;46.934;8.276;2023-04-19T02:55:10;96678.03;;;11.43;81.00
57232;BME280;43488;46.934;8.276;2023-04-19T02:57:37;96675.41;;;11.43;80.56
57232;BME280;43488;46.934;8.276;2023-04-19T03:00:05;96678.03;;;11.43;80.38
57232;BME280;43488;46.934;8.276;2023-04-19T03:02:36;96677.22;;;11.42;80.50
57232;BME280;43488;46.934;8.276;2023-04-19T03:05:04;96683.31;;;11.43;81.09
57232;BME280;43488;46.934;8.276;2023-04-19T03:07:44;96676.44;;;11.42;80.42
57232;BME280;43488;46.934;8.276;2023-04-19T03:10:12;96669.16;;;11.30;80.63
57232;BME280;43488;46.934;8.276;2023-04-19T03:12:39;96678.53;;;11.26;81.03
57232;BME280;43488;46.934;8.276;2023-04-19T03:15:11;96682.56;;;11.29;81.20
57232;BME280;43488;46.934;8.276;2023-04-19T03:17:39;96676.69;;;11.27;81.29
57232;BME280;43488;46.934;8.276;2023-04-19T03:20:08;96670.78;;;11.31;81.42
57232;BME280;43488;46.934;8.276;2023-04-19T03:25:16;96676.09;;;11.25;81.38
57232;BME280;43488;46.934;8.276;2023-04-19T03:27:52;96672.06;;;11.16;81.11
57232;BME280;43488;46.934;8.276;2023-04-19T03:30:38;96669.63;;;11.14;81.55
57232;BME280;43488;46.934;8.276;2023-04-19T03:33:05;96669.66;;;11.07;81.69
57232;BME280;43488;46.934;8.276;2023-04-19T03:35:33;96671.06;;;10.97;82.92
57232;BME280;43488;46.934;8.276;2023-04-19T03:38:02;96669.66;;;11.01;82.41
57232;BME280;43488;46.934;8.276;2023-04-19T03:40:44;96665.00;;;10.96;83.90
57232;BME280;43488;46.934;8.276;2023-04-19T03:43:20;96666.22;;;11.00;83.34
57232;BME280;43488;46.934;8.276;2023-04-19T03:45:54;96672.06;;;11.09;83.31
57232;BME280;43488;46.934;8.276;2023-04-19T03:48:21;96671.28;;;11.08;82.82
57232;BME280;43488;46.934;8.276;2023-04-19T03:50:49;96662.78;;;11.00;83.20
57232;BME280;43488;46.934;8.276;2023-04-19T03:53:22;96661.94;;;11.06;83.19
57232;BME280;43488;46.934;8.276;2023-04-19T03:55:55;96662.78;;;11.06;83.32
57232;BME280;43488;46.934;8.276;2023-04-19T03:58:23;96661.53;;;11.02;82.74
57232;BME280;43488;46.934;8.276;2023-04-19T04:00:50;96657.50;;;11.00;83.05
57232;BME280;43488;46.934;8.276;2023-04-19T04:03:29;96657.50;;;11.06;82.49
57232;BME280;43488;46.934;8.276;2023-04-19T04:06:00;96661.94;;;11.06;82.33
57232;BME280;43488;46.934;8.276;2023-04-19T04:08:48;96657.09;;;10.96;82.31
57232;BME280;43488;46.934;8.276;2023-04-19T04:11:25;96665.63;;;10.98;83.13
57232;BME280;43488;46.934;8.276;2023-04-19T04:13:54;96659.53;;;10.98;83.33
57232;BME280;43488;46.934;8.276;2023-04-19T04:16:27;96670.06;;;10.98;82.99
57232;BME280;43488;46.934;8.276;2023-04-19T04:18:54;96668.03;;;10.93;83.08
57232;BME280;43488;46.934;8.276;2023-04-19T04:21:22;96664.41;;;10.94;83.09
57232;BME280;43488;46.934;8.276;2023-04-19T04:23:50;96668.84;;;10.94;83.70
57232;BME280;43488;46.934;8.276;2023-04-19T04:26:19;96672.09;;;11.02;83.20
57232;BME280;43488;46.934;8.276;2023-04-19T04:28:48;96675.53;;;11.03;83.24
57232;BME280;43488;46.934;8.276;2023-04-19T04:31:18;96672.09;;;11.02;83.58
57232;BME280;43488;46.934;8.276;2023-04-19T04:33:47;96678.97;;;11.03;83.11
57232;BME280;43488;46.934;8.276;2023-04-19T04:36:15;96673.09;;;11.01;82.69
57232;BME280;43488;46.934;8.276;2023-04-19T04:38:42;96675.94;;;11.00;82.68
57232;BME280;43488;46.934;8.276;2023-04-19T04:43:42;96679.56;;;11.05;82.94
57232;BME280;43488;46.934;8.276;2023-04-19T04:46:12;96686.28;;;11.08;82.77
57232;BME280;43488;46.934;8.276;2023-04-19T04:48:39;96678.38;;;11.08;83.10
57232;BME280;43488;46.934;8.276;2023-04-19T04:51:06;96685.25;;;11.09;83.79
57232;BME280;43488;46.934;8.276;2023-04-19T04:53:34;96686.28;;;11.08;83.56
57232;BME280;43488;46.934;8.276;2023-04-19T04:56:04;96686.28;;;11.01;83.88
57232;BME280;43488;46.934;8.276;2023-04-19T04:58:31;96687.06;;;11.02;83.43
57232;BME280;43488;46.934;8.276;2023-04-19T05:01:22;96682.63;;;11.02;83.33
57232;BME280;43488;46.934;8.276;2023-04-19T05:03:50;96688.91;;;10.95;83.31
57232;BME280;43488;46.934;8.276;2023-04-19T05:06:18;96683.44;;;10.96;82.98
57232;BME280;43488;46.934;8.276;2023-04-19T05:08:45;96691.97;;;10.92;83.10
57232;BME280;43488;46.934;8.276;2023-04-19T05:11:13;96687.50;;;10.92;83.60
57232;BME280;43488;46.934;8.276;2023-04-19T05:13:43;96685.47;;;10.94;83.13
57232;BME280;43488;46.934;8.276;2023-04-19T05:16:17;96684.66;;;10.94;83.07
57232;BME280;43488;46.934;8.276;2023-04-19T05:18:48;96681.59;;;10.97;82.94
57232;BME280;43488;46.934;8.276;2023-04-19T05:21:16;96677.78;;;10.99;82.76
57232;BME280;43488;46.934;8.276;2023-04-19T05:23:43;96682.22;;;10.92;83.43
57232;BME280;43488;46.934;8.276;2023-04-19T05:26:16;96685.28;;;10.89;84.21
57232;BME280;43488;46.934;8.276;2023-04-19T05:28:44;96687.91;;;10.89;84.76
57232;BME280;43488;46.934;8.276;2023-04-19T05:31:11;96682.84;;;10.94;83.88
57232;BME280;43488;46.934;8.276;2023-04-19T05:33:39;96695.78;;;10.96;83.30
57232;BME280;43488;46.934;8.276;2023-04-19T05:38:50;96685.47;;;11.01;83.01
57232;BME280;43488;46.934;8.276;2023-04-19T05:43:50;96684.06;;;10.98;83.21
57232;BME280;43488;46.934;8.276;2023-04-19T05:49:02;96684.47;;;10.89;83.79
57232;BME280;43488;46.934;8.276;2023-04-19T05:51:42;96679.81;;;10.97;83.55
57232;BME280;43488;46.934;8.276;2023-04-19T05:54:09;96682.03;;;11.07;83.04
57232;BME280;43488;46.934;8.276;2023-04-19T05:56:38;96681.38;;;11.11;83.00
57232;BME280;43488;46.934;8.276;2023-04-19T05:59:06;96686.66;;;11.11;83.20
57232;BME280;43488;46.934;8.276;2023-04-19T06:01:34;96686.44;;;11.13;82.77
57232;BME280;43488;46.934;8.276;2023-04-19T06:04:03;96683.41;;;11.16;82.42
57232;BME280;43488;46.934;8.276;2023-04-19T06:06:31;96687.03;;;11.15;82.20
57232;BME280;43488;46.934;8.276;2023-04-19T06:08:59;96684.81;;;11.19;82.10
57232;BME280;43488;46.934;8.276;2023-04-19T06:11:41;96684.81;;;11.25;82.94
57232;BME280;43488;46.934;8.276;2023-04-19T06:14:10;96686.06;;;11.16;82.82
57232;BME280;43488;46.934;8.276;2023-04-19T06:16:46;96687.47;;;11.19;83.13
57232;BME280;43488;46.934;8.276;2023-04-19T06:19:13;96684.63;;;11.14;84.20
57232;BME280;43488;46.934;8.276;2023-04-19T06:21:41;96684.59;;;11.20;84.17
57232;BME280;43488;46.934;8.276;2023-04-19T06:24:14;96686.22;;;11.21;84.24
57232;BME280;43488;46.934;8.276;2023-04-19T06:26:41;96688.06;;;11.21;83.99
57232;BME280;43488;46.934;8.276;2023-04-19T06:32:08;96691.84;;;11.38;83.71
57232;BME280;43488;46.934;8.276;2023-04-19T06:34:36;96692.28;;;11.28;84.04
57232;BME280;43488;46.934;8.276;2023-04-19T06:37:03;96692.28;;;11.28;84.17
57232;BME280;43488;46.934;8.276;2023-04-19T06:39:31;96697.94;;;11.38;84.86
57232;BME280;43488;46.934;8.276;2023-04-19T06:41:58;96695.50;;;11.44;83.60
57232;BME280;43488;46.934;8.276;2023-04-19T06:44:48;96697.34;;;11.43;83.93
57232;BME280;43488;46.934;8.276;2023-04-19T06:47:25;96691.63;;;11.46;83.98
57232;BME280;43488;46.934;8.276;2023-04-19T06:49:59;96696.69;;;11.48;84.40
57232;BME280;43488;46.934;8.276;2023-04-19T06:52:28;96698.31;;;11.42;83.47
57232;BME280;43488;46.934;8.276;2023-04-19T06:55:32;96706.00;;;11.50;85.36
57232;BME280;43488;46.934;8.276;2023-04-19T06:58:42;96704.19;;;11.51;83.50
57232;BME280;43488;46.934;8.276;2023-04-19T07:01:12;96708.66;;;11.50;84.19
57232;BME280;43488;46.934;8.276;2023-04-19T07:03:39;96708.84;;;11.55;83.77
57232;BME280;43488;46.934;8.276;2023-04-19T07:06:09;96710.47;;;11.50;83.31
57232;BME280;43488;46.934;8.276;2023-04-19T07:08:40;96713.38;;;11.28;84.16
57232;BME280;43488;46.934;8.276;2023-04-19T07:11:07;96708.31;;;11.20;85.11
57232;BME280;43488;46.934;8.276;2023-04-19T07:13:35;96711.97;;;11.19;85.32
57232;BME280;43488;46.934;8.276;2023-04-19T07:16:08;96709.75;;;11.16;84.80
57232;BME280;43488;46.934;8.276;2023-04-19T07:18:35;96704.47;;;11.23;84.76
57232;BME280;43488;46.934;8.276;2023-04-19T07:21:14;96716.06;;;11.02;86.06
57232;BME280;43488;46.934;8.276;2023-04-19T07:26:23;96711.00;;;11.00;86.98
57232;BME280;43488;46.934;8.276;2023-04-19T07:28:50;96706.53;;;10.88;87.58
57232;BME280;43488;46.934;8.276;2023-04-19T07:31:44;96711.59;;;10.96;86.79
57232;BME280;43488;46.934;8.276;2023-04-19T07:34:22;96709.59;;;10.98;87.27
57232;BME280;43488;46.934;8.276;2023-04-19T07:36:50;96708.56;;;10.92;87.84
57232;BME280;43488;46.934;8.276;2023-04-19T07:39:18;96713.00;;;11.11;87.63
57232;BME280;43488;46.934;8.276;2023-04-19T07:41:49;96705.47;;;11.22;86.89
57232;BME280;43488;46.934;8.276;2023-04-19T07:44:16;96712.13;;;11.37;85.92
57232;BME280;43488;46.934;8.276;2023-04-19T07:46:59;96710.09;;;11.39;85.77
57232;BME280;43488;46.934;8.276;2023-04-19T07:49:38;96712.13;;;11.44;84.80
57232;BME280;43488;46.934;8.276;2023-04-19T07:52:14;96710.09;;;11.33;85.04
57232;BME280;43488;46.934;8.276;2023-04-19T07:54:53;96706.66;;;11.32;86.00
57232;BME280;43488;46.934;8.276;2023-04-19T07:57:35;96712.16;;;11.31;85.66
57232;BME280;43488;46.934;8.276;2023-04-19T08:00:04;96709.88;;;11.41;84.78
57232;BME280;43488;46.934;8.276;2023-04-19T08:02:32;96707.09;;;11.29;85.85
57232;BME280;43488;46.934;8.276;2023-04-19T08:05:00;96713.00;;;11.25;85.59
57232;BME280;43488;46.934;8.276;2023-04-19T08:07:33;96709.50;;;11.37;85.82
57232;BME280;43488;46.934;8.276;2023-04-19T08:10:01;96710.47;;;11.50;85.50
57232;BME280;43488;46.934;8.276;2023-04-19T08:12:35;96712.44;;;11.61;84.74
57232;BME280;43488;46.934;8.276;2023-04-19T08:15:06;96711.63;;;11.67;84.18
57232;BME280;43488;46.934;8.276;2023-04-19T08:17:34;96713.22;;;11.75;83.40
57232;BME280;43488;46.934;8.276;2023-04-19T08:20:03;96709.13;;;11.92;82.56
57232;BME280;43488;46.934;8.276;2023-04-19T08:22:32;96699.81;;;11.89;81.41
57232;BME280;43488;46.934;8.276;2023-04-19T08:25:00;96701.22;;;11.92;82.46
57232;BME280;43488;46.934;8.276;2023-04-19T08:27:27;96700.31;;;12.05;82.49
57232;BME280;43488;46.934;8.276;2023-04-19T08:29:55;96701.78;;;12.01;81.92
57232;BME280;43488;46.934;8.276;2023-04-19T08:32:23;96696.66;;;12.06;80.51
57232;BME280;43488;46.934;8.276;2023-04-19T08:34:53;96695.97;;;11.85;81.73
57232;BME280;43488;46.934;8.276;2023-04-19T08:37:21;96701.34;;;12.04;80.86
57232;BME280;43488;46.934;8.276;2023-04-19T08:39:49;96695.22;;;12.10;80.31
57232;BME280;43488;46.934;8.276;2023-04-19T08:42:18;96693.22;;;12.05;80.79
57232;BME280;43488;46.934;8.276;2023-04-19T08:44:45;96697.69;;;12.05;80.91
57232;BME280;43488;46.934;8.276;2023-04-19T08:47:14;96691.56;;;12.11;80.81
57232;BME280;43488;46.934;8.276;2023-04-19T08:49:43;96692.94;;;12.20;79.92
57232;BME280;43488;46.934;8.276;2023-04-19T08:52:49;96692.75;;;12.15;80.24
57232;BME280;43488;46.934;8.276;2023-04-19T08:55:17;96690.88;;;12.22;80.09
57232;BME280;43488;46.934;8.276;2023-04-19T08:57:44;96691.06;;;12.27;80.80
57232;BME280;43488;46.934;8.276;2023-04-19T09:00:12;96687.16;;;12.36;79.22
57232;BME280;43488;46.934;8.276;2023-04-19T09:02:51;96689.28;;;12.21;79.77
57232;BME280;43488;46.934;8.276;2023-04-19T09:05:19;96688.25;;;12.53;78.35
57232;BME280;43488;46.934;8.276;2023-04-19T09:07:48;96684.63;;;12.48;79.56
57232;BME280;43488;46.934;8.276;2023-04-19T09:10:18;96679.09;;;12.56;78.80
57232;BME280;43488;46.934;8.276;2023-04-19T09:13:26;96671.44;;;12.73;78.80
57232;BME280;43488;46.934;8.276;2023-04-19T09:15:55;96673.84;;;12.49;80.14
57232;BME280;43488;46.934;8.276;2023-04-19T09:18:31;96671.06;;;12.44;78.92
57232;BME280;43488;46.934;8.276;2023-04-19T09:20:59;96676.06;;;12.77;77.72
57232;BME280;43488;46.934;8.276;2023-04-19T09:23:27;96664.72;;;12.95;76.34
57232;BME280;43488;46.934;8.276;2023-04-19T09:26:00;96665.94;;;12.74;77.22
57232;BME280;43488;46.934;8.276;2023-04-19T09:29:04;96664.50;;;13.15;77.10
57232;BME280;43488;46.934;8.276;2023-04-19T09:31:35;96658.31;;;13.28;75.42
57232;BME280;43488;46.934;8.276;2023-04-19T09:34:17;96657.28;;;13.29;74.71
57232;BME280;43488;46.934;8.276;2023-04-19T09:36:55;96652.44;;;13.26;75.28
57232;BME280;43488;46.934;8.276;2023-04-19T09:39:32;96652.78;;;13.11;74.21
57232;BME280;43488;46.934;8.276;2023-04-19T09:42:02;96643.59;;;13.14;76.25
57232;BME280;43488;46.934;8.276;2023-04-19T09:44:29;96636.69;;;13.13;75.54
57232;BME280;43488;46.934;8.276;2023-04-19T09:47:27;96644.63;;;13.13;75.58
57232;BME280;43488;46.934;8.276;2023-04-19T09:50:10;96638.31;;;13.32;74.65
57232;BME280;43488;46.934;8.276;2023-04-19T09:52:37;96627.91;;;13.37;75.56
57232;BME280;43488;46.934;8.276;2023-04-19T09:55:05;96621.53;;;13.45;74.25
57232;BME280;43488;46.934;8.276;2023-04-19T09:57:36;96623.38;;;13.74;73.08
57232;BME280;43488;46.934;8.276;2023-04-19T10:03:00;96619.72;;;13.87;70.53
57232;BME280;43488;46.934;8.276;2023-04-19T10:05:28;96615.41;;;14.04;70.68
57232;BME280;43488;46.934;8.276;2023-04-19T10:08:14;96610.69;;;14.06;70.56
57232;BME280;43488;46.934;8.276;2023-04-19T10:10:46;96613.72;;;14.10;68.13
57232;BME280;43488;46.934;8.276;2023-04-19T10:13:27;96609.22;;;14.10;68.89
57232;BME280;43488;46.934;8.276;2023-04-19T10:15:55;96606.91;;;14.14;69.46
57232;BME280;43488;46.934;8.276;2023-04-19T10:18:28;96612.47;;;13.82;70.38
57232;BME280;43488;46.934;8.276;2023-04-19T10:21:05;96606.41;;;13.93;68.24
57232;BME280;43488;46.934;8.276;2023-04-19T10:23:34;96601.22;;;13.87;68.76
57232;BME280;43488;46.934;8.276;2023-04-19T10:26:02;96603.59;;;13.77;70.68
57232;BME280;43488;46.934;8.276;2023-04-19T10:28:30;96598.16;;;13.42;71.06
57232;BME280;43488;46.934;8.276;2023-04-19T10:31:04;96605.78;;;13.80;71.15
57232;BME280;43488;46.934;8.276;2023-04-19T10:33:36;96593.19;;;14.05;70.46
57232;BME280;43488;46.934;8.276;2023-04-19T10:36:19;96584.59;;;14.10;69.28
57232;BME280;43488;46.934;8.276;2023-04-19T10:38:54;96587.72;;;14.18;69.21
57232;BME280;43488;46.934;8.276;2023-04-19T10:42:09;96583.91;;;14.26;69.31
57232;BME280;43488;46.934;8.276;2023-04-19T10:45:35;96580.59;;;14.42;67.65
57232;BME280;43488;46.934;8.276;2023-04-19T10:48:38;96582.25;;;14.55;66.75
57232;BME280;43488;46.934;8.276;2023-04-19T10:54:37;96581.78;;;14.93;65.02
57232;BME280;43488;46.934;8.276;2023-04-19T10:57:08;96566.13;;;14.68;63.13
57232;BME280;43488;46.934;8.276;2023-04-19T10:59:43;96571.28;;;14.87;64.39
57232;BME280;43488;46.934;8.276;2023-04-19T11:07:27;96562.56;;;15.26;61.60
57232;BME280;43488;46.934;8.276;2023-04-19T11:09:54;96554.91;;;15.42;60.19
57232;BME280;43488;46.934;8.276;2023-04-19T11:12:22;96545.69;;;15.32;59.73
57232;BME280;43488;46.934;8.276;2023-04-19T11:14:56;96543.63;;;15.34;59.80
57232;BME280;43488;46.934;8.276;2023-04-19T11:17:29;96540.13;;;15.46;61.90
57232;BME280;43488;46.934;8.276;2023-04-19T11:20:34;96547.97;;;15.41;60.61
57232;BME280;43488;46.934;8.276;2023-04-19T11:23:01;96540.44;;;15.61;61.02
57232;BME280;43488;46.934;8.276;2023-04-19T11:25:35;96536.19;;;15.77;60.31
57232;BME280;43488;46.934;8.276;2023-04-19T11:28:03;96533.97;;;15.85;58.71
57232;BME280;43488;46.934;8.276;2023-04-19T11:30:33;96538.63;;;15.78;60.46
57232;BME280;43488;46.934;8.276;2023-04-19T11:33:01;96525.41;;;15.67;59.53
57232;BME280;43488;46.934;8.276;2023-04-19T11:35:28;96518.50;;;15.66;60.46
57232;BME280;43488;46.934;8.276;2023-04-19T11:37:59;96528.41;;;15.58;60.18
57232;BME280;43488;46.934;8.276;2023-04-19T11:40:29;96523.81;;;15.54;61.55
57232;BME280;43488;46.934;8.276;2023-04-19T11:43:02;96527.06;;;15.27;60.47
57232;BME280;43488;46.934;8.276;2023-04-19T11:45:46;96520.16;;;15.43;60.38
57232;BME280;43488;46.934;8.276;2023-04-19T11:48:26;96509.03;;;15.58;61.16
57232;BME280;43488;46.934;8.276;2023-04-19T11:50:58;96514.31;;;15.70;59.82
57232;BME280;43488;46.934;8.276;2023-04-19T11:53:34;96505.53;;;15.69;60.18
57232;BME280;43488;46.934;8.276;2023-04-19T11:56:06;96513.84;;;15.89;59.10
57232;BME280;43488;46.934;8.276;2023-04-19T11:58:45;96514.81;;;15.83;58.47
57232;BME280;43488;46.934;8.276;2023-04-19T12:01:20;96504.28;;;15.60;59.52
57232;BME280;43488;46.934;8.276;2023-04-19T12:03:56;96515.66;;;15.44;60.09
57232;BME280;43488;46.934;8.276;2023-04-19T12:06:29;96502.81;;;15.52;59.10
57232;BME280;43488;46.934;8.276;2023-04-19T12:08:58;96500.41;;;15.51;59.61
57232;BME280;43488;46.934;8.276;2023-04-19T12:11:41;96501.38;;;15.73;60.03
57232;BME280;43488;46.934;8.276;2023-04-19T12:14:15;96495.03;;;15.46;60.29
57232;BME280;43488;46.934;8.276;2023-04-19T12:16:43;96492.03;;;15.71;62.11
57232;BME280;43488;46.934;8.276;2023-04-19T12:19:17;96497.38;;;15.59;61.10
57232;BME280;43488;46.934;8.276;2023-04-19T12:21:46;96496.66;;;15.47;61.63
57232;BME280;43488;46.934;8.276;2023-04-19T12:24:15;96494.78;;;15.47;62.76
57232;BME280;43488;46.934;8.276;2023-04-19T12:26:54;96492.28;;;15.69;62.04
57232;BME280;43488;46.934;8.276;2023-04-19T12:29:26;96486.22;;;15.57;61.59
57232;BME280;43488;46.934;8.276;2023-04-19T12:31:53;96492.28;;;15.69;62.10
57232;BME280;43488;46.934;8.276;2023-04-19T12:34:24;96499.56;;;15.33;62.84
57232;BME280;43488;46.934;8.276;2023-04-19T12:36:51;96492.47;;;15.22;64.61
57232;BME280;43488;46.934;8.276;2023-04-19T12:39:18;96490.31;;;15.36;64.02
57232;BME280;43488;46.934;8.276;2023-04-19T12:41:55;96485.16;;;15.58;61.87
57232;BME280;43488;46.934;8.276;2023-04-19T12:44:22;96482.47;;;15.41;64.80
57232;BME280;43488;46.934;8.276;2023-04-19T12:46:50;96478.63;;;15.77;61.02
57232;BME280;43488;46.934;8.276;2023-04-19T12:49:18;96485.44;;;16.07;62.78
57232;BME280;43488;46.934;8.276;2023-04-19T12:51:46;96466.72;;;15.97;62.27
57232;BME280;43488;46.934;8.276;2023-04-19T12:54:14;96468.66;;;15.84;62.31
57232;BME280;43488;46.934;8.276;2023-04-19T12:56:42;96476.69;;;15.73;60.89
57232;BME280;43488;46.934;8.276;2023-04-19T12:59:21;96470.66;;;15.77;62.78
57232;BME280;43488;46.934;8.276;2023-04-19T13:01:52;96466.22;;;15.66;63.43
57232;BME280;43488;46.934;8.276;2023-04-19T13:04:20;96456.84;;;15.47;62.78
57232;BME280;43488;46.934;8.276;2023-04-19T13:06:47;96460.22;;;15.59;63.93
57232;BME280;43488;46.934;8.276;2023-04-19T13:09:20;96459.31;;;15.65;62.50
57232;BME280;43488;46.934;8.276;2023-04-19T13:11:47;96455.31;;;15.51;63.05
57232;BME280;43488;46.934;8.276;2023-04-19T13:14:16;96455.63;;;15.38;62.48
57232;BME280;43488;46.934;8.276;2023-04-19T13:16:43;96447.13;;;15.52;62.21
57232;BME280;43488;46.934;8.276;2023-04-19T13:19:16;96448.66;;;15.48;62.48
57232;BME280;43488;46.934;8.276;2023-04-19T13:21:56;96440.69;;;15.48;61.81
57232;BME280;43488;46.934;8.276;2023-04-19T13:24:23;96429.97;;;15.43;62.62
57232;BME280;43488;46.934;8.276;2023-04-19T13:26:53;96430.44;;;15.69;62.40
57232;BME280;43488;46.934;8.276;2023-04-19T13:29:27;96430.53;;;15.45;63.43
57232;BME280;43488;46.934;8.276;2023-04-19T13:31:57;96426.50;;;15.71;63.31
57232;BME280;43488;46.934;8.276;2023-04-19T13:34:49;96419.88;;;15.90;61.72
57232;BME280;43488;46.934;8.276;2023-04-19T13:37:16;96415.00;;;15.82;62.50
57232;BME280;43488;46.934;8.276;2023-04-19T13:39:49;96414.28;;;15.70;60.25
57232;BME280;43488;46.934;8.276;2023-04-19T13:42:17;96407.91;;;15.71;61.87
57232;BME280;43488;46.934;8.276;2023-04-19T13:44:45;96411.44;;;15.93;61.64
57232;BME280;43488;46.934;8.276;2023-04-19T13:47:14;96400.94;;;15.82;63.49
57232;BME280;43488;46.934;8.276;2023-04-19T13:49:47;96409.59;;;15.94;61.76
57232;BME280;43488;46.934;8.276;2023-04-19T13:52:18;96401.03;;;16.09;60.28
57232;BME280;43488;46.934;8.276;2023-04-19T13:54:46;96389.22;;;16.38;60.91
57232;BME280;43488;46.934;8.276;2023-04-19T13:57:13;96400.84;;;16.32;60.24
57232;BME280;43488;46.934;8.276;2023-04-19T13:59:46;96397.75;;;16.18;59.62
57232;BME280;43488;46.934;8.276;2023-04-19T14:02:13;96394.34;;;16.23;59.67